sensor_id;sensor_type;location;lat;lon;timestamp;pressure;altitude;pressure_sealevel;temperature;humidity
21980;BME280;11154;48.558;9.234;2023-11-18T00:00:19;98359.34;;;12.53;80.70
21980;BME280;11154;48.558;9.234;2023-11-18T00:02:21;98356.97;;;12.50;80.48
21980;BME280;11154;48.558;9.234;2023-11-18T00:04:24;98370.47;;;12.48;80.84
21980;BME280;11154;48.558;9.234;2023-11-18T00:06:26;98374.13;;;12.47;80.66
21980;BME280;11154;48.558;9.234;2023-11-18T00:08:28;98373.13;;;12.48;80.80
21980;BME280;11154;48.558;9.234;2023-11-18T00:10:31;98376.66;;;12.49;80.44
21980;BME280;11154;48.558;9.234;2023-11-18T00:12:32;98375.50;;;12.51;80.37
21980;BME280;11154;48.558;9.234;2023-11-18T00:14:35;98377.16;;;12.52;79.99
21980;BME280;11154;48.558;9.234;2023-11-18T00:16:37;98368.16;;;12.53;80.29
21980;BME280;11154;48.558;9.234;2023-11-18T00:18:41;98370.56;;;12.56;80.40
21980;BME280;11154;48.558;9.234;2023-11-18T00:20:43;98369.56;;;12.57;80.04
21980;BME280;11154;48.558;9.234;2023-11-18T00:22:44;98362.16;;;12.51;80.64
21980;BME280;11154;48.558;9.234;2023-11-18T00:24:46;98371.31;;;12.49;80.89
21980;BME280;11154;48.558;9.234;2023-11-18T00:26:47;98368.50;;;12.50;80.96
21980;BME280;11154;48.558;9.234;2023-11-18T00:28:50;98356.31;;;12.48;80.57
21980;BME280;11154;48.558;9.234;2023-11-18T00:30:52;98364.44;;;12.46;80.65
21980;BME280;11154;48.558;9.234;2023-11-18T00:32:53;98348.44;;;12.46;80.72
21980;BME280;11154;48.558;9.234;2023-11-18T00:34:56;98353.94;;;12.45;80.55
21980;BME280;11154;48.558;9.234;2023-11-18T00:36:58;98362.09;;;12.43;80.59
21980;BME280;11154;48.558;9.234;2023-11-18T00:39:00;98362.09;;;12.43;80.98
21980;BME280;11154;48.558;9.234;2023-11-18T00:41:06;98367.72;;;12.40;80.50
21980;BME280;11154;48.558;9.234;2023-11-18T00:43:07;98357.91;;;12.41;80.80
21980;BME280;11154;48.558;9.234;2023-11-18T00:45:10;98364.91;;;12.42;80.71
21980;BME280;11154;48.558;9.234;2023-11-18T00:47:12;98365.22;;;12.39;80.93
21980;BME280;11154;48.558;9.234;2023-11-18T00:49:14;98364.38;;;12.38;80.81
21980;BME280;11154;48.558;9.234;2023-11-18T00:51:17;98368.03;;;12.37;80.60
21980;BME280;11154;48.558;9.234;2023-11-18T00:53:19;98366.88;;;12.40;80.24
21980;BME280;11154;48.558;9.234;2023-11-18T00:55:21;98367.59;;;12.42;80.25
21980;BME280;11154;48.558;9.234;2023-11-18T00:57:22;98360.25;;;12.44;79.81
21980;BME280;11154;48.558;9.234;2023-11-18T00:59:24;98364.59;;;12.45;80.39
21980;BME280;11154;48.558;9.234;2023-11-18T01:01:27;98369.94;;;12.45;79.98
21980;BME280;11154;48.558;9.234;2023-11-18T01:03:28;98367.25;;;12.45;80.43
21980;BME280;11154;48.558;9.234;2023-11-18T01:05:30;98367.44;;;12.43;79.82
21980;BME280;11154;48.558;9.234;2023-11-18T01:07:34;98358.19;;;12.38;79.01
21980;BME280;11154;48.558;9.234;2023-11-18T01:09:34;98359.34;;;12.35;78.76
21980;BME280;11154;48.558;9.234;2023-11-18T01:11:39;98362.84;;;12.36;78.45
21980;BME280;11154;48.558;9.234;2023-11-18T01:13:40;98366.63;;;12.33;78.09
21980;BME280;11154;48.558;9.234;2023-11-18T01:15:42;98364.13;;;12.32;77.68
21980;BME280;11154;48.558;9.234;2023-11-18T01:17:44;98365.97;;;12.31;78.16
21980;BME280;11154;48.558;9.234;2023-11-18T01:19:44;98368.78;;;12.30;78.76
21980;BME280;11154;48.558;9.234;2023-11-18T01:21:46;98369.19;;;12.35;80.03
21980;BME280;11154;48.558;9.234;2023-11-18T01:23:49;98376.19;;;12.36;80.56
21980;BME280;11154;48.558;9.234;2023-11-18T01:25:51;98381.66;;;12.34;80.15
21980;BME280;11154;48.558;9.234;2023-11-18T01:27:52;98381.00;;;12.32;79.89
21980;BME280;11154;48.558;9.234;2023-11-18T01:29:53;98374.25;;;12.28;79.91
21980;BME280;11154;48.558;9.234;2023-11-18T01:31:54;98376.09;;;12.28;79.21
21980;BME280;11154;48.558;9.234;2023-11-18T01:33:56;98378.06;;;12.26;79.50
21980;BME280;11154;48.558;9.234;2023-11-18T01:35:57;98389.72;;;12.25;79.83
21980;BME280;11154;48.558;9.234;2023-11-18T01:37:58;98387.91;;;12.25;79.23
21980;BME280;11154;48.558;9.234;2023-11-18T01:40:02;98388.59;;;12.27;79.54
21980;BME280;11154;48.558;9.234;2023-11-18T01:42:07;98397.44;;;12.28;79.62
21980;BME280;11154;48.558;9.234;2023-11-18T01:44:08;98397.28;;;12.29;79.44
21980;BME280;11154;48.558;9.234;2023-11-18T01:46:10;98393.63;;;12.30;78.83
21980;BME280;11154;48.558;9.234;2023-11-18T01:48:15;98395.31;;;12.31;78.24
21980;BME280;11154;48.558;9.234;2023-11-18T01:50:16;98395.84;;;12.35;78.35
21980;BME280;11154;48.558;9.234;2023-11-18T01:52:19;98394.72;;;12.37;79.03
21980;BME280;11154;48.558;9.234;2023-11-18T01:54:22;98391.06;;;12.38;77.73
21980;BME280;11154;48.558;9.234;2023-11-18T01:56:25;98390.19;;;12.38;78.02
21980;BME280;11154;48.558;9.234;2023-11-18T01:58:27;98391.34;;;12.35;78.99
21980;BME280;11154;48.558;9.234;2023-11-18T02:00:31;98358.44;;;11.56;81.87
21980;BME280;11154;48.558;9.234;2023-11-18T02:02:34;98356.59;;;9.79;93.22
21980;BME280;11154;48.558;9.234;2023-11-18T02:04:38;98355.81;;;9.19;98.49
21980;BME280;11154;48.558;9.234;2023-11-18T02:06:39;98345.88;;;8.91;100.00
21980;BME280;11154;48.558;9.234;2023-11-18T02:08:40;98349.13;;;8.74;100.00
21980;BME280;11154;48.558;9.234;2023-11-18T02:10:46;98350.16;;;8.62;100.00
21980;BME280;11154;48.558;9.234;2023-11-18T02:12:55;98351.66;;;8.55;100.00
21980;BME280;11154;48.558;9.234;2023-11-18T02:15:00;98351.59;;;8.46;100.00
21980;BME280;11154;48.558;9.234;2023-11-18T02:17:05;98352.91;;;8.40;100.00
21980;BME280;11154;48.558;9.234;2023-11-18T02:19:16;98357.53;;;8.38;100.00
21980;BME280;11154;48.558;9.234;2023-11-18T02:21:21;98348.03;;;8.36;100.00
21980;BME280;11154;48.558;9.234;2023-11-18T02:23:24;98364.63;;;8.38;100.00
21980;BME280;11154;48.558;9.234;2023-11-18T02:25:27;98365.59;;;8.37;100.00
21980;BME280;11154;48.558;9.234;2023-11-18T02:27:31;98365.72;;;8.35;100.00
21980;BME280;11154;48.558;9.234;2023-11-18T02:29:35;98358.63;;;8.36;100.00
21980;BME280;11154;48.558;9.234;2023-11-18T02:31:37;98352.22;;;8.38;100.00
21980;BME280;11154;48.558;9.234;2023-11-18T02:33:45;98356.66;;;8.38;100.00
21980;BME280;11154;48.558;9.234;2023-11-18T02:35:51;98359.47;;;8.36;100.00
21980;BME280;11154;48.558;9.234;2023-11-18T02:37:58;98360.41;;;8.35;100.00
21980;BME280;11154;48.558;9.234;2023-11-18T02:40:04;98352.47;;;8.35;100.00
21980;BME280;11154;48.558;9.234;2023-11-18T02:42:09;98354.16;;;8.36;100.00
21980;BME280;11154;48.558;9.234;2023-11-18T02:44:14;98366.44;;;8.37;100.00
21980;BME280;11154;48.558;9.234;2023-11-18T02:46:19;98359.19;;;8.39;100.00
21980;BME280;11154;48.558;9.234;2023-11-18T02:48:21;98352.91;;;8.40;100.00
21980;BME280;11154;48.558;9.234;2023-11-18T02:50:23;98347.91;;;8.37;100.00
21980;BME280;11154;48.558;9.234;2023-11-18T02:52:24;98352.22;;;8.38;100.00
21980;BME280;11154;48.558;9.234;2023-11-18T02:54:26;98357.91;;;8.34;100.00
21980;BME280;11154;48.558;9.234;2023-11-18T02:56:28;98349.81;;;8.35;100.00
21980;BME280;11154;48.558;9.234;2023-11-18T02:58:30;98357.19;;;8.32;100.00
21980;BME280;11154;48.558;9.234;2023-11-18T03:00:33;98351.28;;;8.28;100.00
21980;BME280;11154;48.558;9.234;2023-11-18T03:02:34;98352.41;;;8.26;100.00
21980;BME280;11154;48.558;9.234;2023-11-18T03:04:36;98357.09;;;8.22;100.00
21980;BME280;11154;48.558;9.234;2023-11-18T03:06:37;98351.56;;;8.25;100.00
21980;BME280;11154;48.558;9.234;2023-11-18T03:08:40;98345.16;;;8.28;100.00
21980;BME280;11154;48.558;9.234;2023-11-18T03:10:42;98354.53;;;8.32;100.00
21980;BME280;11154;48.558;9.234;2023-11-18T03:12:44;98361.38;;;8.34;100.00
21980;BME280;11154;48.558;9.234;2023-11-18T03:14:46;98357.56;;;8.27;100.00
21980;BME280;11154;48.558;9.234;2023-11-18T03:16:49;98348.06;;;8.25;100.00
21980;BME280;11154;48.558;9.234;2023-11-18T03:18:51;98347.47;;;8.21;100.00
21980;BME280;11154;48.558;9.234;2023-11-18T03:20:52;98359.28;;;8.17;100.00
21980;BME280;11154;48.558;9.234;2023-11-18T03:22:54;98354.81;;;8.18;100.00
21980;BME280;11154;48.558;9.234;2023-11-18T03:24:55;98352.31;;;8.16;100.00
21980;BME280;11154;48.558;9.234;2023-11-18T03:26:57;98353.88;;;8.08;100.00
21980;BME280;11154;48.558;9.234;2023-11-18T03:28:58;98353.44;;;8.03;100.00
21980;BME280;11154;48.558;9.234;2023-11-18T03:30:59;98349.09;;;8.02;100.00
21980;BME280;11154;48.558;9.234;2023-11-18T03:33:01;98351.59;;;8.03;100.00
21980;BME280;11154;48.558;9.234;2023-11-18T03:35:05;98350.19;;;7.99;100.00
21980;BME280;11154;48.558;9.234;2023-11-18T03:37:09;98341.78;;;7.94;100.00
21980;BME280;11154;48.558;9.234;2023-11-18T03:39:13;98342.03;;;7.91;100.00
21980;BME280;11154;48.558;9.234;2023-11-18T03:41:15;98343.94;;;7.89;100.00
21980;BME280;11154;48.558;9.234;2023-11-18T03:43:17;98347.91;;;7.95;100.00
21980;BME280;11154;48.558;9.234;2023-11-18T03:45:17;98354.28;;;7.92;100.00
21980;BME280;11154;48.558;9.234;2023-11-18T03:47:19;98353.84;;;7.88;100.00
21980;BME280;11154;48.558;9.234;2023-11-18T03:49:25;98353.94;;;7.86;100.00
21980;BME280;11154;48.558;9.234;2023-11-18T03:51:27;98355.75;;;7.86;100.00
21980;BME280;11154;48.558;9.234;2023-11-18T03:53:29;98363.44;;;7.88;100.00
21980;BME280;11154;48.558;9.234;2023-11-18T03:55:30;98369.22;;;7.93;100.00
21980;BME280;11154;48.558;9.234;2023-11-18T03:57:31;98369.09;;;7.95;100.00
21980;BME280;11154;48.558;9.234;2023-11-18T03:59:33;98369.47;;;7.90;100.00
21980;BME280;11154;48.558;9.234;2023-11-18T04:01:35;98374.28;;;7.86;100.00
21980;BME280;11154;48.558;9.234;2023-11-18T04:03:36;98388.59;;;8.88;100.00
21980;BME280;11154;48.558;9.234;2023-11-18T04:05:39;98395.88;;;9.45;100.00
21980;BME280;11154;48.558;9.234;2023-11-18T04:07:41;98394.88;;;9.76;100.00
21980;BME280;11154;48.558;9.234;2023-11-18T04:09:42;98395.13;;;10.03;99.13
21980;BME280;11154;48.558;9.234;2023-11-18T04:11:44;98392.63;;;10.30;96.41
21980;BME280;11154;48.558;9.234;2023-11-18T04:13:46;98388.03;;;10.51;94.40
21980;BME280;11154;48.558;9.234;2023-11-18T04:15:47;98384.13;;;10.74;92.25
21980;BME280;11154;48.558;9.234;2023-11-18T04:17:49;98394.44;;;10.95;90.68
21980;BME280;11154;48.558;9.234;2023-11-18T04:19:52;98384.06;;;11.11;89.40
21980;BME280;11154;48.558;9.234;2023-11-18T04:21:57;98382.59;;;11.26;88.09
21980;BME280;11154;48.558;9.234;2023-11-18T04:23:59;98389.44;;;11.38;87.04
21980;BME280;11154;48.558;9.234;2023-11-18T04:25:59;98385.63;;;11.50;86.58
21980;BME280;11154;48.558;9.234;2023-11-18T04:28:01;98389.25;;;11.58;85.53
21980;BME280;11154;48.558;9.234;2023-11-18T04:30:05;98394.00;;;11.64;84.63
21980;BME280;11154;48.558;9.234;2023-11-18T04:32:08;98402.94;;;11.73;84.39
21980;BME280;11154;48.558;9.234;2023-11-18T04:34:10;98388.78;;;11.72;84.08
21980;BME280;11154;48.558;9.234;2023-11-18T04:36:12;98385.81;;;11.75;83.54
21980;BME280;11154;48.558;9.234;2023-11-18T04:38:17;98395.34;;;11.78;83.35
21980;BME280;11154;48.558;9.234;2023-11-18T04:40:19;98392.50;;;11.79;83.40
21980;BME280;11154;48.558;9.234;2023-11-18T04:42:23;98390.56;;;11.81;83.28
21980;BME280;11154;48.558;9.234;2023-11-18T04:44:23;98395.72;;;11.83;83.83
21980;BME280;11154;48.558;9.234;2023-11-18T04:46:25;98385.75;;;11.85;82.30
21980;BME280;11154;48.558;9.234;2023-11-18T04:48:27;98385.06;;;11.83;81.92
21980;BME280;11154;48.558;9.234;2023-11-18T04:50:29;98379.34;;;11.78;80.95
21980;BME280;11154;48.558;9.234;2023-11-18T04:52:30;98391.13;;;11.75;81.45
21980;BME280;11154;48.558;9.234;2023-11-18T04:54:36;98388.78;;;11.72;81.19
21980;BME280;11154;48.558;9.234;2023-11-18T04:56:38;98381.78;;;11.71;81.36
21980;BME280;11154;48.558;9.234;2023-11-18T04:58:40;98378.25;;;11.71;81.16
21980;BME280;11154;48.558;9.234;2023-11-18T05:00:40;98375.75;;;11.69;80.49
21980;BME280;11154;48.558;9.234;2023-11-18T05:02:42;98391.19;;;11.66;80.91
21980;BME280;11154;48.558;9.234;2023-11-18T05:04:43;98386.78;;;11.74;81.87
21980;BME280;11154;48.558;9.234;2023-11-18T05:06:45;98390.75;;;11.70;81.37
21980;BME280;11154;48.558;9.234;2023-11-18T05:08:46;98387.53;;;11.67;80.50
21980;BME280;11154;48.558;9.234;2023-11-18T05:10:50;98394.16;;;11.63;79.54
21980;BME280;11154;48.558;9.234;2023-11-18T05:12:51;98392.59;;;11.60;79.78
21980;BME280;11154;48.558;9.234;2023-11-18T05:14:56;98387.97;;;11.62;80.08
21980;BME280;11154;48.558;9.234;2023-11-18T05:16:57;98385.47;;;11.61;79.58
21980;BME280;11154;48.558;9.234;2023-11-18T05:18:59;98389.09;;;11.60;79.37
21980;BME280;11154;48.558;9.234;2023-11-18T05:21:01;98377.47;;;11.61;78.73
21980;BME280;11154;48.558;9.234;2023-11-18T05:23:05;98379.97;;;11.62;79.78
21980;BME280;11154;48.558;9.234;2023-11-18T05:25:10;98385.25;;;11.72;83.91
21980;BME280;11154;48.558;9.234;2023-11-18T05:27:13;98379.66;;;11.75;83.65
21980;BME280;11154;48.558;9.234;2023-11-18T05:29:15;98389.63;;;11.73;81.77
21980;BME280;11154;48.558;9.234;2023-11-18T05:31:17;98388.09;;;11.70;80.99
21980;BME280;11154;48.558;9.234;2023-11-18T05:33:19;98381.22;;;11.68;80.81
21980;BME280;11154;48.558;9.234;2023-11-18T05:35:20;98376.56;;;11.70;80.34
21980;BME280;11154;48.558;9.234;2023-11-18T05:37:28;98377.97;;;11.74;80.89
21980;BME280;11154;48.558;9.234;2023-11-18T05:39:29;98367.31;;;11.74;80.68
21980;BME280;11154;48.558;9.234;2023-11-18T05:41:31;98375.84;;;11.77;80.33
21980;BME280;11154;48.558;9.234;2023-11-18T05:43:36;98381.03;;;11.79;79.89
21980;BME280;11154;48.558;9.234;2023-11-18T05:45:40;98379.06;;;11.81;79.44
21980;BME280;11154;48.558;9.234;2023-11-18T05:48:02;98382.72;;;11.80;79.32
21980;BME280;11154;48.558;9.234;2023-11-18T05:50:04;98374.41;;;11.83;79.49
21980;BME280;11154;48.558;9.234;2023-11-18T05:52:05;98383.41;;;11.82;77.90
21980;BME280;11154;48.558;9.234;2023-11-18T05:54:08;98377.78;;;11.85;77.57
21980;BME280;11154;48.558;9.234;2023-11-18T05:56:09;98381.19;;;11.77;78.37
21980;BME280;11154;48.558;9.234;2023-11-18T05:58:11;98375.69;;;11.79;79.33
21980;BME280;11154;48.558;9.234;2023-11-18T06:00:18;98372.75;;;11.82;79.82
21980;BME280;11154;48.558;9.234;2023-11-18T06:02:21;98372.75;;;11.82;78.72
21980;BME280;11154;48.558;9.234;2023-11-18T06:04:22;98369.38;;;11.80;78.74
21980;BME280;11154;48.558;9.234;2023-11-18T06:06:26;98372.75;;;11.82;78.66
21980;BME280;11154;48.558;9.234;2023-11-18T06:08:27;98360.25;;;11.82;78.91
21980;BME280;11154;48.558;9.234;2023-11-18T06:10:29;98367.81;;;11.87;79.30
21980;BME280;11154;48.558;9.234;2023-11-18T06:12:31;98371.13;;;11.89;79.30
21980;BME280;11154;48.558;9.234;2023-11-18T06:14:33;98365.44;;;11.84;79.55
21980;BME280;11154;48.558;9.234;2023-11-18T06:16:36;98360.78;;;11.86;80.74
21980;BME280;11154;48.558;9.234;2023-11-18T06:18:37;98364.28;;;11.86;81.24
21980;BME280;11154;48.558;9.234;2023-11-18T06:20:38;98368.94;;;11.84;80.77
21980;BME280;11154;48.558;9.234;2023-11-18T06:22:40;98365.44;;;11.84;80.75
21980;BME280;11154;48.558;9.234;2023-11-18T06:24:41;98368.09;;;11.84;79.00
21980;BME280;11154;48.558;9.234;2023-11-18T06:26:43;98362.47;;;11.87;79.19
21980;BME280;11154;48.558;9.234;2023-11-18T06:28:45;98367.50;;;11.90;79.11
21980;BME280;11154;48.558;9.234;2023-11-18T06:30:46;98371.84;;;11.91;77.86
21980;BME280;11154;48.558;9.234;2023-11-18T06:32:49;98372.00;;;11.89;77.17
21980;BME280;11154;48.558;9.234;2023-11-18T06:34:51;98368.91;;;11.94;76.85
21980;BME280;11154;48.558;9.234;2023-11-18T06:36:53;98382.06;;;11.95;77.43
21980;BME280;11154;48.558;9.234;2023-11-18T06:38:56;98383.75;;;11.96;77.61
21980;BME280;11154;48.558;9.234;2023-11-18T06:40:59;98380.91;;;11.98;77.04
21980;BME280;11154;48.558;9.234;2023-11-18T06:43:03;98379.09;;;11.98;75.96
21980;BME280;11154;48.558;9.234;2023-11-18T06:45:11;98383.16;;;12.02;76.23
21980;BME280;11154;48.558;9.234;2023-11-18T06:47:13;98382.28;;;12.02;76.20
21980;BME280;11154;48.558;9.234;2023-11-18T06:49:18;98389.63;;;12.00;75.74
21980;BME280;11154;48.558;9.234;2023-11-18T06:51:20;98391.44;;;11.99;76.70
21980;BME280;11154;48.558;9.234;2023-11-18T06:53:23;98383.31;;;12.01;77.31
21980;BME280;11154;48.558;9.234;2023-11-18T06:55:26;98384.28;;;12.00;77.73
21980;BME280;11154;48.558;9.234;2023-11-18T06:57:28;98385.97;;;12.01;77.55
21980;BME280;11154;48.558;9.234;2023-11-18T06:59:30;98381.63;;;12.00;78.04
21980;BME280;11154;48.558;9.234;2023-11-18T07:01:31;98385.97;;;12.01;78.04
21980;BME280;11154;48.558;9.234;2023-11-18T07:03:33;98383.31;;;12.01;78.24
21980;BME280;11154;48.558;9.234;2023-11-18T07:05:37;98369.13;;;12.00;78.48
21980;BME280;11154;48.558;9.234;2023-11-18T07:07:40;98364.78;;;11.99;78.23
21980;BME280;11154;48.558;9.234;2023-11-18T07:09:43;98370.97;;;12.00;78.77
21980;BME280;11154;48.558;9.234;2023-11-18T07:11:46;98366.47;;;12.00;78.26
21980;BME280;11154;48.558;9.234;2023-11-18T07:13:48;98368.97;;;12.02;78.20
21980;BME280;11154;48.558;9.234;2023-11-18T07:15:49;98367.97;;;12.03;78.12
21980;BME280;11154;48.558;9.234;2023-11-18T07:17:51;98359.84;;;12.04;78.28
21980;BME280;11154;48.558;9.234;2023-11-18T07:19:53;98368.53;;;12.06;78.13
21980;BME280;11154;48.558;9.234;2023-11-18T07:21:57;98367.38;;;12.09;78.71
21980;BME280;11154;48.558;9.234;2023-11-18T07:23:59;98373.03;;;12.06;78.56
21980;BME280;11154;48.558;9.234;2023-11-18T07:26:02;98391.84;;;12.04;78.77
21980;BME280;11154;48.558;9.234;2023-11-18T07:28:05;98396.47;;;12.02;78.95
21980;BME280;11154;48.558;9.234;2023-11-18T07:30:09;98405.06;;;11.96;79.85
21980;BME280;11154;48.558;9.234;2023-11-18T07:32:11;98403.94;;;11.99;79.82
21980;BME280;11154;48.558;9.234;2023-11-18T07:34:14;98412.75;;;11.99;80.22
21980;BME280;11154;48.558;9.234;2023-11-18T07:36:15;98405.63;;;12.00;79.99
21980;BME280;11154;48.558;9.234;2023-11-18T07:38:21;98412.63;;;12.01;80.05
21980;BME280;11154;48.558;9.234;2023-11-18T07:40:23;98397.31;;;12.03;80.20
21980;BME280;11154;48.558;9.234;2023-11-18T07:42:28;98403.34;;;12.05;80.24
21980;BME280;11154;48.558;9.234;2023-11-18T07:44:30;98398.00;;;12.05;79.66
21980;BME280;11154;48.558;9.234;2023-11-18T07:46:33;98396.03;;;12.07;79.83
21980;BME280;11154;48.558;9.234;2023-11-18T07:48:34;98389.03;;;12.06;79.77
21980;BME280;11154;48.558;9.234;2023-11-18T07:50:36;98390.00;;;12.05;79.89
21980;BME280;11154;48.558;9.234;2023-11-18T07:52:37;98388.03;;;12.07;79.54
21980;BME280;11154;48.558;9.234;2023-11-18T07:54:40;98392.38;;;12.08;79.62
21980;BME280;11154;48.558;9.234;2023-11-18T07:56:43;98387.06;;;12.08;80.02
21980;BME280;11154;48.558;9.234;2023-11-18T07:58:47;98376.06;;;12.11;80.03
21980;BME280;11154;48.558;9.234;2023-11-18T08:00:48;98371.56;;;12.11;79.32
21980;BME280;11154;48.558;9.234;2023-11-18T08:02:50;98376.06;;;12.11;79.49
21980;BME280;11154;48.558;9.234;2023-11-18T08:04:54;98371.56;;;12.11;79.91
21980;BME280;11154;48.558;9.234;2023-11-18T08:06:56;98371.56;;;12.11;79.82
21980;BME280;11154;48.558;9.234;2023-11-18T08:08:58;98379.66;;;12.19;79.55
21980;BME280;11154;48.558;9.234;2023-11-18T08:11:01;98385.84;;;12.20;79.31
21980;BME280;11154;48.558;9.234;2023-11-18T08:13:03;98384.56;;;12.23;79.52
21980;BME280;11154;48.558;9.234;2023-11-18T08:15:06;98389.72;;;12.25;79.71
21980;BME280;11154;48.558;9.234;2023-11-18T08:17:09;98393.25;;;12.25;79.78
21980;BME280;11154;48.558;9.234;2023-11-18T08:19:12;98386.94;;;12.26;79.39
21980;BME280;11154;48.558;9.234;2023-11-18T08:21:13;98383.13;;;12.29;79.69
21980;BME280;11154;48.558;9.234;2023-11-18T08:23:15;98388.28;;;12.30;80.29
21980;BME280;11154;48.558;9.234;2023-11-18T08:25:17;98382.34;;;12.36;80.05
21980;BME280;11154;48.558;9.234;2023-11-18T08:27:19;98392.19;;;12.36;80.02
21980;BME280;11154;48.558;9.234;2023-11-18T08:29:21;98400.03;;;12.37;79.79
21980;BME280;11154;48.558;9.234;2023-11-18T08:31:21;98400.19;;;12.36;79.53
21980;BME280;11154;48.558;9.234;2023-11-18T08:33:23;98401.72;;;12.38;79.60
21980;BME280;11154;48.558;9.234;2023-11-18T08:35:26;98396.38;;;12.38;79.50
21980;BME280;11154;48.558;9.234;2023-11-18T08:37:29;98390.88;;;12.40;79.21
21980;BME280;11154;48.558;9.234;2023-11-18T08:39:30;98392.41;;;12.42;79.78
21980;BME280;11154;48.558;9.234;2023-11-18T08:41:32;98394.09;;;12.43;79.58
21980;BME280;11154;48.558;9.234;2023-11-18T08:43:35;98393.25;;;12.43;79.12
21980;BME280;11154;48.558;9.234;2023-11-18T08:45:35;98397.75;;;12.42;79.52
21980;BME280;11154;48.558;9.234;2023-11-18T08:47:37;98397.47;;;12.45;79.99
21980;BME280;11154;48.558;9.234;2023-11-18T08:49:39;98391.09;;;12.46;79.90
21980;BME280;11154;48.558;9.234;2023-11-18T08:51:40;98381.47;;;12.45;79.45
21980;BME280;11154;48.558;9.234;2023-11-18T08:53:42;98387.84;;;12.52;79.24
21980;BME280;11154;48.558;9.234;2023-11-18T08:55:44;98386.31;;;12.50;78.57
21980;BME280;11154;48.558;9.234;2023-11-18T08:57:51;98397.13;;;12.48;78.46
21980;BME280;11154;48.558;9.234;2023-11-18T09:00:07;98397.13;;;12.48;78.42
21980;BME280;11154;48.558;9.234;2023-11-18T09:02:28;98397.69;;;12.52;79.25
21980;BME280;11154;48.558;9.234;2023-11-18T09:04:30;98380.84;;;12.51;78.96
21980;BME280;11154;48.558;9.234;2023-11-18T09:06:31;98376.34;;;12.52;79.09
21980;BME280;11154;48.558;9.234;2023-11-18T09:08:35;98375.63;;;12.50;78.57
21980;BME280;11154;48.558;9.234;2023-11-18T09:10:36;98359.78;;;12.48;78.58
21980;BME280;11154;48.558;9.234;2023-11-18T09:12:38;98362.63;;;12.47;78.78
21980;BME280;11154;48.558;9.234;2023-11-18T09:14:41;98371.06;;;12.42;77.86
21980;BME280;11154;48.558;9.234;2023-11-18T09:16:47;98367.72;;;12.40;78.18
21980;BME280;11154;48.558;9.234;2023-11-18T09:18:49;98364.38;;;12.38;79.26
21980;BME280;11154;48.558;9.234;2023-11-18T09:20:51;98362.38;;;12.40;79.07
21980;BME280;11154;48.558;9.234;2023-11-18T09:22:54;98361.78;;;12.46;78.69
21980;BME280;11154;48.558;9.234;2023-11-18T09:24:56;98375.50;;;12.51;79.37
21980;BME280;11154;48.558;9.234;2023-11-18T09:26:58;98361.84;;;12.54;80.33
21980;BME280;11154;48.558;9.234;2023-11-18T09:28:59;98365.06;;;12.58;80.16
21980;BME280;11154;48.558;9.234;2023-11-18T09:31:02;98370.09;;;12.61;79.79
21980;BME280;11154;48.558;9.234;2023-11-18T09:33:05;98367.25;;;12.62;79.26
21980;BME280;11154;48.558;9.234;2023-11-18T09:35:14;98379.28;;;12.66;79.61
21980;BME280;11154;48.558;9.234;2023-11-18T09:37:17;98370.63;;;12.64;80.04
21980;BME280;11154;48.558;9.234;2023-11-18T09:39:20;98379.28;;;12.66;78.65
21980;BME280;11154;48.558;9.234;2023-11-18T09:41:37;98369.16;;;12.70;79.20
21980;BME280;11154;48.558;9.234;2023-11-18T09:43:40;98380.38;;;12.73;78.59
21980;BME280;11154;48.558;9.234;2023-11-18T09:45:44;98380.06;;;12.76;78.56
21980;BME280;11154;48.558;9.234;2023-11-18T09:47:48;98375.25;;;12.80;79.17
21980;BME280;11154;48.558;9.234;2023-11-18T09:49:56;98368.44;;;12.85;78.18
21980;BME280;11154;48.558;9.234;2023-11-18T09:52:03;98372.81;;;12.86;77.78
21980;BME280;11154;48.558;9.234;2023-11-18T09:54:10;98375.22;;;12.89;78.27
21980;BME280;11154;48.558;9.234;2023-11-18T09:56:19;98369.88;;;12.89;77.51
21980;BME280;11154;48.558;9.234;2023-11-18T09:58:37;98373.91;;;12.93;78.10
21980;BME280;11154;48.558;9.234;2023-11-18T10:00:42;98360.19;;;12.88;76.94
21980;BME280;11154;48.558;9.234;2023-11-18T10:02:43;98362.69;;;12.90;78.51
21980;BME280;11154;48.558;9.234;2023-11-18T10:04:47;98349.88;;;12.93;78.56
21980;BME280;11154;48.558;9.234;2023-11-18T10:06:51;98350.84;;;12.92;77.93
21980;BME280;11154;48.558;9.234;2023-11-18T10:08:54;98347.19;;;12.93;78.67
21980;BME280;11154;48.558;9.234;2023-11-18T10:10:56;98355.22;;;12.93;78.00
21980;BME280;11154;48.558;9.234;2023-11-18T10:13:05;98353.53;;;12.92;77.95
21980;BME280;11154;48.558;9.234;2023-11-18T10:15:22;98351.53;;;12.94;79.65
21980;BME280;11154;48.558;9.234;2023-11-18T10:17:24;98356.25;;;13.00;80.61
21980;BME280;11154;48.558;9.234;2023-11-18T10:19:49;98351.44;;;13.03;79.66
21980;BME280;11154;48.558;9.234;2023-11-18T10:21:52;98354.19;;;13.11;77.86
21980;BME280;11154;48.558;9.234;2023-11-18T10:24:00;98357.84;;;13.10;77.37
21980;BME280;11154;48.558;9.234;2023-11-18T10:26:02;98353.84;;;13.14;77.94
21980;BME280;11154;48.558;9.234;2023-11-18T10:28:04;98349.03;;;13.18;78.71
21980;BME280;11154;48.558;9.234;2023-11-18T10:30:06;98339.41;;;13.25;80.97
21980;BME280;11154;48.558;9.234;2023-11-18T10:32:19;98340.22;;;13.25;78.32
21980;BME280;11154;48.558;9.234;2023-11-18T10:34:22;98342.44;;;13.30;79.01
21980;BME280;11154;48.558;9.234;2023-11-18T10:36:27;98340.63;;;13.30;79.10
21980;BME280;11154;48.558;9.234;2023-11-18T10:38:31;98347.47;;;13.33;79.02
21980;BME280;11154;48.558;9.234;2023-11-18T10:40:36;98347.47;;;13.33;79.05
21980;BME280;11154;48.558;9.234;2023-11-18T10:42:37;98337.81;;;13.40;80.16
21980;BME280;11154;48.558;9.234;2023-11-18T10:44:54;98349.69;;;13.45;79.50
21980;BME280;11154;48.558;9.234;2023-11-18T10:46:56;98350.72;;;13.44;79.60
21980;BME280;11154;48.558;9.234;2023-11-18T10:48:58;98356.56;;;13.48;79.34
21980;BME280;11154;48.558;9.234;2023-11-18T10:51:00;98357.94;;;13.52;79.95